sensor_id;sensor_type;location;lat;lon;timestamp;P1;durP1;ratioP1;P2;durP2;ratioP2
21611;SDS011;47005;52.292;13.452;2022-07-29T00:01:05;5.80;;;1.75;;
21611;SDS011;47005;52.292;13.452;2022-07-29T00:03:31;5.43;;;1.77;;
21611;SDS011;47005;52.292;13.452;2022-07-29T00:05:57;2.22;;;1.45;;
21611;SDS011;47005;52.292;13.452;2022-07-29T00:08:23;3.80;;;1.85;;
21611;SDS011;47005;52.292;13.452;2022-07-29T00:10:48;8.93;;;2.35;;
21611;SDS011;47005;52.292;13.452;2022-07-29T00:13:14;4.95;;;1.80;;
21611;SDS011;47005;52.292;13.452;2022-07-29T00:15:40;5.03;;;2.17;;
21611;SDS011;47005;52.292;13.452;2022-07-29T00:18:06;2.83;;;1.70;;
21611;SDS011;47005;52.292;13.452;2022-07-29T00:20:32;5.35;;;2.00;;
21611;SDS011;47005;52.292;13.452;2022-07-29T00:22:57;14.43;;;2.25;;
21611;SDS011;47005;52.292;13.452;2022-07-29T00:25:23;5.25;;;2.35;;
21611;SDS011;47005;52.292;13.452;2022-07-29T00:27:49;6.07;;;2.67;;
21611;SDS011;47005;52.292;13.452;2022-07-29T00:30:14;6.07;;;2.42;;
21611;SDS011;47005;52.292;13.452;2022-07-29T00:32:40;5.47;;;1.88;;
21611;SDS011;47005;52.292;13.452;2022-07-29T00:35:06;5.38;;;2.20;;
21611;SDS011;47005;52.292;13.452;2022-07-29T00:37:50;5.38;;;2.13;;
21611;SDS011;47005;52.292;13.452;2022-07-29T00:40:16;4.22;;;2.17;;
21611;SDS011;47005;52.292;13.452;2022-07-29T00:42:48;8.77;;;2.65;;
21611;SDS011;47005;52.292;13.452;2022-07-29T00:45:16;4.90;;;2.17;;
21611;SDS011;47005;52.292;13.452;2022-07-29T00:47:42;8.88;;;2.50;;
21611;SDS011;47005;52.292;13.452;2022-07-29T00:50:08;4.30;;;2.58;;
21611;SDS011;47005;52.292;13.452;2022-07-29T00:52:35;5.95;;;2.30;;
21611;SDS011;47005;52.292;13.452;2022-07-29T00:55:03;4.22;;;2.25;;
21611;SDS011;47005;52.292;13.452;2022-07-29T00:57:30;5.68;;;2.17;;
21611;SDS011;47005;52.292;13.452;2022-07-29T00:59:56;3.25;;;2.20;;
21611;SDS011;47005;52.292;13.452;2022-07-29T01:02:21;7.38;;;2.50;;
21611;SDS011;47005;52.292;13.452;2022-07-29T01:04:47;5.78;;;2.78;;
21611;SDS011;47005;52.292;13.452;2022-07-29T01:07:13;5.10;;;3.08;;
21611;SDS011;47005;52.292;13.452;2022-07-29T01:09:39;6.82;;;2.70;;
21611;SDS011;47005;52.292;13.452;2022-07-29T01:12:07;6.40;;;2.60;;
21611;SDS011;47005;52.292;13.452;2022-07-29T01:14:33;5.47;;;3.03;;
21611;SDS011;47005;52.292;13.452;2022-07-29T01:17:02;5.80;;;2.70;;
21611;SDS011;47005;52.292;13.452;2022-07-29T01:22:26;8.38;;;3.17;;
21611;SDS011;47005;52.292;13.452;2022-07-29T01:28:13;4.47;;;2.88;;
21611;SDS011;47005;52.292;13.452;2022-07-29T01:30:45;6.88;;;2.92;;
21611;SDS011;47005;52.292;13.452;2022-07-29T01:33:15;6.75;;;2.65;;
21611;SDS011;47005;52.292;13.452;2022-07-29T01:36:02;5.47;;;3.17;;
21611;SDS011;47005;52.292;13.452;2022-07-29T01:38:35;5.13;;;2.47;;
21611;SDS011;47005;52.292;13.452;2022-07-29T01:41:08;4.65;;;3.13;;
21611;SDS011;47005;52.292;13.452;2022-07-29T01:43:56;5.72;;;2.67;;
21611;SDS011;47005;52.292;13.452;2022-07-29T01:46:26;4.72;;;3.03;;
21611;SDS011;47005;52.292;13.452;2022-07-29T01:49:15;6.03;;;3.33;;
21611;SDS011;47005;52.292;13.452;2022-07-29T01:51:48;6.88;;;2.63;;
21611;SDS011;47005;52.292;13.452;2022-07-29T01:57:08;6.38;;;2.67;;
21611;SDS011;47005;52.292;13.452;2022-07-29T01:59:36;10.05;;;2.92;;
21611;SDS011;47005;52.292;13.452;2022-07-29T02:02:03;3.72;;;2.30;;
21611;SDS011;47005;52.292;13.452;2022-07-29T02:04:31;4.28;;;2.50;;
21611;SDS011;47005;52.292;13.452;2022-07-29T02:07:00;7.35;;;2.17;;
21611;SDS011;47005;52.292;13.452;2022-07-29T02:09:29;4.95;;;2.60;;
21611;SDS011;47005;52.292;13.452;2022-07-29T02:11:57;4.70;;;2.97;;
21611;SDS011;47005;52.292;13.452;2022-07-29T02:14:26;4.30;;;2.63;;
21611;SDS011;47005;52.292;13.452;2022-07-29T02:16:54;5.47;;;2.85;;
21611;SDS011;47005;52.292;13.452;2022-07-29T02:19:23;7.65;;;2.78;;
21611;SDS011;47005;52.292;13.452;2022-07-29T02:21:51;5.03;;;2.80;;
21611;SDS011;47005;52.292;13.452;2022-07-29T02:24:19;12.35;;;2.78;;
21611;SDS011;47005;52.292;13.452;2022-07-29T02:26:47;5.38;;;2.80;;
21611;SDS011;47005;52.292;13.452;2022-07-29T02:29:14;6.15;;;2.20;;
21611;SDS011;47005;52.292;13.452;2022-07-29T02:31:41;4.55;;;2.97;;
21611;SDS011;47005;52.292;13.452;2022-07-29T02:34:08;6.22;;;3.03;;
21611;SDS011;47005;52.292;13.452;2022-07-29T02:36:36;6.43;;;3.15;;
21611;SDS011;47005;52.292;13.452;2022-07-29T02:39:02;4.10;;;2.78;;
21611;SDS011;47005;52.292;13.452;2022-07-29T02:41:54;5.53;;;2.67;;
21611;SDS011;47005;52.292;13.452;2022-07-29T02:44:21;8.20;;;3.15;;
21611;SDS011;47005;52.292;13.452;2022-07-29T02:47:01;5.53;;;3.30;;
21611;SDS011;47005;52.292;13.452;2022-07-29T02:55:38;5.50;;;2.60;;
21611;SDS011;47005;52.292;13.452;2022-07-29T02:58:17;5.30;;;2.40;;
21611;SDS011;47005;52.292;13.452;2022-07-29T03:00:53;6.63;;;3.10;;
21611;SDS011;47005;52.292;13.452;2022-07-29T03:03:25;5.80;;;2.78;;
21611;SDS011;47005;52.292;13.452;2022-07-29T03:05:56;5.68;;;2.83;;
21611;SDS011;47005;52.292;13.452;2022-07-29T03:08:23;5.40;;;2.78;;
21611;SDS011;47005;52.292;13.452;2022-07-29T03:10:49;6.38;;;3.13;;
21611;SDS011;47005;52.292;13.452;2022-07-29T03:13:17;4.93;;;2.63;;
21611;SDS011;47005;52.292;13.452;2022-07-29T03:15:43;5.25;;;3.30;;
21611;SDS011;47005;52.292;13.452;2022-07-29T03:18:10;7.70;;;3.13;;
21611;SDS011;47005;52.292;13.452;2022-07-29T03:20:37;4.97;;;2.72;;
21611;SDS011;47005;52.292;13.452;2022-07-29T03:23:03;6.28;;;3.00;;
21611;SDS011;47005;52.292;13.452;2022-07-29T03:25:29;6.75;;;3.03;;
21611;SDS011;47005;52.292;13.452;2022-07-29T03:27:55;5.88;;;2.85;;
21611;SDS011;47005;52.292;13.452;2022-07-29T03:30:21;11.73;;;2.92;;
21611;SDS011;47005;52.292;13.452;2022-07-29T03:32:47;5.30;;;2.45;;
21611;SDS011;47005;52.292;13.452;2022-07-29T03:35:14;8.27;;;3.13;;
21611;SDS011;47005;52.292;13.452;2022-07-29T03:37:41;5.55;;;3.13;;
21611;SDS011;47005;52.292;13.452;2022-07-29T03:40:08;4.65;;;2.75;;
21611;SDS011;47005;52.292;13.452;2022-07-29T03:42:36;6.15;;;3.08;;
21611;SDS011;47005;52.292;13.452;2022-07-29T03:45:05;7.00;;;2.88;;
21611;SDS011;47005;52.292;13.452;2022-07-29T03:47:33;5.20;;;2.60;;
21611;SDS011;47005;52.292;13.452;2022-07-29T03:50:05;6.95;;;3.60;;
21611;SDS011;47005;52.292;13.452;2022-07-29T03:52:32;4.75;;;2.63;;
21611;SDS011;47005;52.292;13.452;2022-07-29T03:54:58;5.80;;;2.83;;
21611;SDS011;47005;52.292;13.452;2022-07-29T03:57:24;7.30;;;3.72;;
21611;SDS011;47005;52.292;13.452;2022-07-29T03:59:52;10.23;;;2.80;;
21611;SDS011;47005;52.292;13.452;2022-07-29T04:02:19;4.68;;;2.80;;
21611;SDS011;47005;52.292;13.452;2022-07-29T04:04:45;5.95;;;3.03;;
21611;SDS011;47005;52.292;13.452;2022-07-29T04:07:12;6.20;;;3.05;;
21611;SDS011;47005;52.292;13.452;2022-07-29T04:09:38;6.47;;;3.10;;
21611;SDS011;47005;52.292;13.452;2022-07-29T04:12:04;6.25;;;3.30;;
21611;SDS011;47005;52.292;13.452;2022-07-29T04:14:33;7.68;;;2.92;;
21611;SDS011;47005;52.292;13.452;2022-07-29T04:16:59;6.90;;;3.20;;
21611;SDS011;47005;52.292;13.452;2022-07-29T04:19:26;6.90;;;3.17;;
21611;SDS011;47005;52.292;13.452;2022-07-29T04:21:52;4.18;;;2.58;;
21611;SDS011;47005;52.292;13.452;2022-07-29T04:24:17;3.58;;;2.15;;
21611;SDS011;47005;52.292;13.452;2022-07-29T04:26:44;3.80;;;2.45;;
21611;SDS011;47005;52.292;13.452;2022-07-29T04:29:11;5.57;;;2.38;;
21611;SDS011;47005;52.292;13.452;2022-07-29T04:31:37;5.90;;;3.67;;
21611;SDS011;47005;52.292;13.452;2022-07-29T04:34:03;4.93;;;2.75;;
21611;SDS011;47005;52.292;13.452;2022-07-29T04:36:28;7.72;;;3.13;;
21611;SDS011;47005;52.292;13.452;2022-07-29T04:38:54;5.05;;;2.70;;
21611;SDS011;47005;52.292;13.452;2022-07-29T04:41:19;8.30;;;3.65;;
21611;SDS011;47005;52.292;13.452;2022-07-29T04:43:45;7.57;;;3.35;;
21611;SDS011;47005;52.292;13.452;2022-07-29T04:46:11;8.95;;;3.20;;
21611;SDS011;47005;52.292;13.452;2022-07-29T04:48:36;5.40;;;3.35;;
21611;SDS011;47005;52.292;13.452;2022-07-29T04:51:02;5.90;;;2.50;;
21611;SDS011;47005;52.292;13.452;2022-07-29T04:53:27;4.43;;;2.70;;
21611;SDS011;47005;52.292;13.452;2022-07-29T04:55:53;5.70;;;2.95;;
21611;SDS011;47005;52.292;13.452;2022-07-29T04:58:19;8.88;;;3.13;;
21611;SDS011;47005;52.292;13.452;2022-07-29T05:00:45;7.03;;;3.53;;
21611;SDS011;47005;52.292;13.452;2022-07-29T05:03:10;6.68;;;2.92;;
21611;SDS011;47005;52.292;13.452;2022-07-29T05:05:36;4.82;;;3.13;;
21611;SDS011;47005;52.292;13.452;2022-07-29T05:08:02;8.50;;;3.58;;
21611;SDS011;47005;52.292;13.452;2022-07-29T05:10:27;5.18;;;2.83;;
21611;SDS011;47005;52.292;13.452;2022-07-29T05:12:53;7.05;;;3.55;;
21611;SDS011;47005;52.292;13.452;2022-07-29T05:15:19;6.55;;;3.22;;
21611;SDS011;47005;52.292;13.452;2022-07-29T05:17:44;7.07;;;2.78;;
21611;SDS011;47005;52.292;13.452;2022-07-29T05:20:10;6.07;;;2.88;;
21611;SDS011;47005;52.292;13.452;2022-07-29T05:22:36;6.55;;;2.47;;
21611;SDS011;47005;52.292;13.452;2022-07-29T05:25:01;8.05;;;3.17;;
21611;SDS011;47005;52.292;13.452;2022-07-29T05:27:27;5.20;;;2.85;;
21611;SDS011;47005;52.292;13.452;2022-07-29T05:29:53;5.43;;;2.40;;
21611;SDS011;47005;52.292;13.452;2022-07-29T05:32:18;6.18;;;2.78;;
21611;SDS011;47005;52.292;13.452;2022-07-29T05:34:44;10.98;;;2.80;;
21611;SDS011;47005;52.292;13.452;2022-07-29T05:37:10;4.68;;;2.85;;
21611;SDS011;47005;52.292;13.452;2022-07-29T05:39:38;6.57;;;2.75;;
21611;SDS011;47005;52.292;13.452;2022-07-29T05:42:07;5.28;;;2.13;;
21611;SDS011;47005;52.292;13.452;2022-07-29T05:44:39;5.32;;;3.03;;
21611;SDS011;47005;52.292;13.452;2022-07-29T05:47:05;8.55;;;2.90;;
21611;SDS011;47005;52.292;13.452;2022-07-29T05:49:31;7.05;;;3.35;;
21611;SDS011;47005;52.292;13.452;2022-07-29T05:51:57;9.07;;;3.30;;
21611;SDS011;47005;52.292;13.452;2022-07-29T05:54:23;4.68;;;2.60;;
21611;SDS011;47005;52.292;13.452;2022-07-29T05:56:49;4.88;;;2.80;;
21611;SDS011;47005;52.292;13.452;2022-07-29T05:59:14;6.63;;;2.63;;
21611;SDS011;47005;52.292;13.452;2022-07-29T06:01:40;5.32;;;2.63;;
21611;SDS011;47005;52.292;13.452;2022-07-29T06:04:06;6.32;;;2.50;;
21611;SDS011;47005;52.292;13.452;2022-07-29T06:06:32;5.18;;;2.50;;
21611;SDS011;47005;52.292;13.452;2022-07-29T06:08:59;4.15;;;2.25;;
21611;SDS011;47005;52.292;13.452;2022-07-29T06:11:25;3.25;;;1.92;;
21611;SDS011;47005;52.292;13.452;2022-07-29T06:13:51;5.53;;;2.72;;
21611;SDS011;47005;52.292;13.452;2022-07-29T06:16:16;5.53;;;2.65;;
21611;SDS011;47005;52.292;13.452;2022-07-29T06:18:42;5.93;;;2.80;;
21611;SDS011;47005;52.292;13.452;2022-07-29T06:21:08;7.03;;;2.75;;
21611;SDS011;47005;52.292;13.452;2022-07-29T06:23:37;9.20;;;2.45;;
21611;SDS011;47005;52.292;13.452;2022-07-29T06:26:04;5.65;;;2.28;;
21611;SDS011;47005;52.292;13.452;2022-07-29T06:28:30;5.35;;;2.83;;
21611;SDS011;47005;52.292;13.452;2022-07-29T06:30:56;4.47;;;2.70;;
21611;SDS011;47005;52.292;13.452;2022-07-29T06:33:21;4.65;;;2.42;;
21611;SDS011;47005;52.292;13.452;2022-07-29T06:35:47;4.45;;;2.45;;
21611;SDS011;47005;52.292;13.452;2022-07-29T06:38:13;5.22;;;2.42;;
21611;SDS011;47005;52.292;13.452;2022-07-29T06:40:43;3.92;;;2.08;;
21611;SDS011;47005;52.292;13.452;2022-07-29T06:43:28;6.43;;;3.22;;
21611;SDS011;47005;52.292;13.452;2022-07-29T06:46:06;10.35;;;2.70;;
21611;SDS011;47005;52.292;13.452;2022-07-29T06:48:33;4.38;;;2.17;;
21611;SDS011;47005;52.292;13.452;2022-07-29T06:51:00;6.05;;;2.40;;
21611;SDS011;47005;52.292;13.452;2022-07-29T06:53:28;2.78;;;1.92;;
21611;SDS011;47005;52.292;13.452;2022-07-29T06:55:54;6.78;;;2.42;;
21611;SDS011;47005;52.292;13.452;2022-07-29T06:58:20;5.72;;;1.98;;
21611;SDS011;47005;52.292;13.452;2022-07-29T07:00:46;9.18;;;2.60;;
21611;SDS011;47005;52.292;13.452;2022-07-29T07:03:12;4.68;;;2.15;;
21611;SDS011;47005;52.292;13.452;2022-07-29T07:05:38;5.43;;;2.35;;
21611;SDS011;47005;52.292;13.452;2022-07-29T07:08:04;11.43;;;2.47;;
21611;SDS011;47005;52.292;13.452;2022-07-29T07:10:30;4.47;;;2.35;;
21611;SDS011;47005;52.292;13.452;2022-07-29T07:12:55;6.53;;;2.35;;
21611;SDS011;47005;52.292;13.452;2022-07-29T07:15:21;6.57;;;2.50;;
21611;SDS011;47005;52.292;13.452;2022-07-29T07:17:50;6.43;;;2.55;;
21611;SDS011;47005;52.292;13.452;2022-07-29T07:20:16;4.15;;;2.20;;
21611;SDS011;47005;52.292;13.452;2022-07-29T07:22:42;7.18;;;2.60;;
21611;SDS011;47005;52.292;13.452;2022-07-29T07:25:08;5.80;;;2.08;;
21611;SDS011;47005;52.292;13.452;2022-07-29T07:27:34;7.32;;;2.45;;
21611;SDS011;47005;52.292;13.452;2022-07-29T07:30:00;12.45;;;2.55;;
21611;SDS011;47005;52.292;13.452;2022-07-29T07:32:26;4.70;;;1.98;;
21611;SDS011;47005;52.292;13.452;2022-07-29T07:34:52;5.15;;;2.17;;
21611;SDS011;47005;52.292;13.452;2022-07-29T07:37:17;3.92;;;2.08;;
21611;SDS011;47005;52.292;13.452;2022-07-29T07:39:44;5.30;;;2.40;;
21611;SDS011;47005;52.292;13.452;2022-07-29T07:42:10;3.75;;;1.95;;
21611;SDS011;47005;52.292;13.452;2022-07-29T07:44:37;3.33;;;1.85;;
21611;SDS011;47005;52.292;13.452;2022-07-29T07:47:04;5.93;;;1.60;;
21611;SDS011;47005;52.292;13.452;2022-07-29T07:49:29;3.22;;;1.75;;
21611;SDS011;47005;52.292;13.452;2022-07-29T07:51:55;5.50;;;1.95;;
21611;SDS011;47005;52.292;13.452;2022-07-29T07:54:21;4.00;;;1.67;;
21611;SDS011;47005;52.292;13.452;2022-07-29T07:56:46;8.43;;;2.20;;
21611;SDS011;47005;52.292;13.452;2022-07-29T07:59:16;8.90;;;2.30;;
21611;SDS011;47005;52.292;13.452;2022-07-29T08:01:42;4.13;;;2.28;;
21611;SDS011;47005;52.292;13.452;2022-07-29T08:04:08;4.20;;;2.25;;
21611;SDS011;47005;52.292;13.452;2022-07-29T08:06:34;8.13;;;2.47;;
21611;SDS011;47005;52.292;13.452;2022-07-29T08:09:02;3.60;;;1.95;;
21611;SDS011;47005;52.292;13.452;2022-07-29T08:11:28;3.63;;;1.90;;
21611;SDS011;47005;52.292;13.452;2022-07-29T08:13:54;5.50;;;1.95;;
21611;SDS011;47005;52.292;13.452;2022-07-29T08:16:19;8.80;;;2.08;;
21611;SDS011;47005;52.292;13.452;2022-07-29T08:18:46;4.00;;;1.77;;
21611;SDS011;47005;52.292;13.452;2022-07-29T08:21:12;3.05;;;1.98;;
21611;SDS011;47005;52.292;13.452;2022-07-29T08:23:39;7.25;;;2.08;;
21611;SDS011;47005;52.292;13.452;2022-07-29T08:26:10;2.63;;;1.65;;
21611;SDS011;47005;52.292;13.452;2022-07-29T08:28:40;3.30;;;1.95;;
21611;SDS011;47005;52.292;13.452;2022-07-29T08:31:13;2.20;;;1.50;;
21611;SDS011;47005;52.292;13.452;2022-07-29T08:33:39;7.75;;;2.03;;
21611;SDS011;47005;52.292;13.452;2022-07-29T08:36:05;5.28;;;1.92;;
21611;SDS011;47005;52.292;13.452;2022-07-29T08:38:31;5.18;;;1.90;;
21611;SDS011;47005;52.292;13.452;2022-07-29T08:40:58;5.40;;;1.83;;
21611;SDS011;47005;52.292;13.452;2022-07-29T08:43:25;3.28;;;1.70;;
21611;SDS011;47005;52.292;13.452;2022-07-29T08:45:52;4.10;;;1.85;;
21611;SDS011;47005;52.292;13.452;2022-07-29T08:48:19;6.70;;;2.13;;
21611;SDS011;47005;52.292;13.452;2022-07-29T08:50:46;5.20;;;1.80;;
21611;SDS011;47005;52.292;13.452;2022-07-29T08:53:15;3.72;;;2.03;;
21611;SDS011;47005;52.292;13.452;2022-07-29T08:55:43;6.38;;;2.42;;
21611;SDS011;47005;52.292;13.452;2022-07-29T08:58:09;3.47;;;1.88;;
21611;SDS011;47005;52.292;13.452;2022-07-29T09:00:36;4.20;;;1.92;;
21611;SDS011;47005;52.292;13.452;2022-07-29T09:03:05;10.52;;;2.33;;
21611;SDS011;47005;52.292;13.452;2022-07-29T09:05:32;5.93;;;2.03;;
21611;SDS011;47005;52.292;13.452;2022-07-29T09:07:59;6.43;;;2.58;;
21611;SDS011;47005;52.292;13.452;2022-07-29T09:10:25;5.22;;;1.90;;
21611;SDS011;47005;52.292;13.452;2022-07-29T09:12:51;7.25;;;1.70;;
21611;SDS011;47005;52.292;13.452;2022-07-29T09:15:17;3.58;;;2.05;;
21611;SDS011;47005;52.292;13.452;2022-07-29T09:17:44;2.60;;;1.67;;
21611;SDS011;47005;52.292;13.452;2022-07-29T09:20:13;9.63;;;2.20;;
21611;SDS011;47005;52.292;13.452;2022-07-29T09:22:41;4.97;;;1.63;;
21611;SDS011;47005;52.292;13.452;2022-07-29T09:25:06;6.18;;;1.73;;
21611;SDS011;47005;52.292;13.452;2022-07-29T09:27:32;4.03;;;1.85;;
21611;SDS011;47005;52.292;13.452;2022-07-29T09:32:31;5.03;;;2.17;;
21611;SDS011;47005;52.292;13.452;2022-07-29T09:35:18;4.30;;;2.03;;
21611;SDS011;47005;52.292;13.452;2022-07-29T09:37:46;2.70;;;1.70;;
21611;SDS011;47005;52.292;13.452;2022-07-29T09:40:19;3.60;;;2.00;;
21611;SDS011;47005;52.292;13.452;2022-07-29T09:42:46;7.20;;;1.70;;
21611;SDS011;47005;52.292;13.452;2022-07-29T09:45:13;4.15;;;2.10;;
21611;SDS011;47005;52.292;13.452;2022-07-29T09:47:51;2.78;;;1.75;;
21611;SDS011;47005;52.292;13.452;2022-07-29T09:50:17;4.13;;;2.05;;
21611;SDS011;47005;52.292;13.452;2022-07-29T09:52:50;9.80;;;1.77;;
21611;SDS011;47005;52.292;13.452;2022-07-29T09:55:16;3.50;;;1.60;;
21611;SDS011;47005;52.292;13.452;2022-07-29T09:57:43;4.82;;;1.98;;
21611;SDS011;47005;52.292;13.452;2022-07-29T10:00:11;6.60;;;1.80;;
21611;SDS011;47005;52.292;13.452;2022-07-29T10:02:38;4.32;;;1.92;;
21611;SDS011;47005;52.292;13.452;2022-07-29T10:05:06;5.50;;;1.85;;
21611;SDS011;47005;52.292;13.452;2022-07-29T10:10:09;4.05;;;2.67;;
21611;SDS011;47005;52.292;13.452;2022-07-29T10:12:43;5.15;;;2.78;;
21611;SDS011;47005;52.292;13.452;2022-07-29T10:15:18;3.13;;;1.80;;
21611;SDS011;47005;52.292;13.452;2022-07-29T10:17:45;5.13;;;1.98;;
21611;SDS011;47005;52.292;13.452;2022-07-29T10:20:11;4.70;;;1.98;;
21611;SDS011;47005;52.292;13.452;2022-07-29T10:22:37;5.13;;;1.65;;
21611;SDS011;47005;52.292;13.452;2022-07-29T10:25:03;7.72;;;1.98;;
21611;SDS011;47005;52.292;13.452;2022-07-29T10:27:29;8.48;;;2.42;;
21611;SDS011;47005;52.292;13.452;2022-07-29T10:29:54;5.75;;;2.40;;
21611;SDS011;47005;52.292;13.452;2022-07-29T10:35:06;4.35;;;1.90;;
21611;SDS011;47005;52.292;13.452;2022-07-29T10:45:49;3.80;;;2.58;;
21611;SDS011;47005;52.292;13.452;2022-07-29T10:48:21;6.03;;;3.20;;
21611;SDS011;47005;52.292;13.452;2022-07-29T10:53:23;6.32;;;2.60;;
21611;SDS011;47005;52.292;13.452;2022-07-29T10:55:50;8.50;;;3.20;;
21611;SDS011;47005;52.292;13.452;2022-07-29T10:58:18;7.18;;;2.88;;
21611;SDS011;47005;52.292;13.452;2022-07-29T11:00:52;5.35;;;2.75;;
21611;SDS011;47005;52.292;13.452;2022-07-29T11:06:14;7.40;;;2.97;;
21611;SDS011;47005;52.292;13.452;2022-07-29T11:08:41;9.52;;;2.72;;
21611;SDS011;47005;52.292;13.452;2022-07-29T11:13:45;3.83;;;2.47;;
21611;SDS011;47005;52.292;13.452;2022-07-29T11:16:12;4.68;;;2.67;;
21611;SDS011;47005;52.292;13.452;2022-07-29T11:21:47;4.30;;;2.30;;
21611;SDS011;47005;52.292;13.452;2022-07-29T11:24:15;7.68;;;2.65;;
21611;SDS011;47005;52.292;13.452;2022-07-29T11:26:43;3.92;;;2.40;;
21611;SDS011;47005;52.292;13.452;2022-07-29T11:29:15;4.00;;;2.50;;
21611;SDS011;47005;52.292;13.452;2022-07-29T11:31:45;4.55;;;2.65;;
21611;SDS011;47005;52.292;13.452;2022-07-29T11:47:30;5.88;;;2.58;;
21611;SDS011;47005;52.292;13.452;2022-07-29T11:49:58;7.00;;;2.70;;
21611;SDS011;47005;52.292;13.452;2022-07-29T11:52:38;7.22;;;2.90;;
21611;SDS011;47005;52.292;13.452;2022-07-29T11:55:10;4.95;;;3.10;;
21611;SDS011;47005;52.292;13.452;2022-07-29T11:57:37;5.93;;;3.10;;
21611;SDS011;47005;52.292;13.452;2022-07-29T12:00:47;6.68;;;2.63;;
21611;SDS011;47005;52.292;13.452;2022-07-29T12:03:08;6.38;;;2.80;;
21611;SDS011;47005;52.292;13.452;2022-07-29T12:10:41;12.10;;;2.47;;
21611;SDS011;47005;52.292;13.452;2022-07-29T12:13:07;3.92;;;2.78;;
21611;SDS011;47005;52.292;13.452;2022-07-29T12:15:33;3.90;;;2.58;;
21611;SDS011;47005;52.292;13.452;2022-07-29T12:18:09;11.07;;;2.80;;
21611;SDS011;47005;52.292;13.452;2022-07-29T12:20:39;5.40;;;3.10;;
21611;SDS011;47005;52.292;13.452;2022-07-29T12:23:05;10.32;;;3.17;;
21611;SDS011;47005;52.292;13.452;2022-07-29T12:25:33;5.32;;;2.90;;
21611;SDS011;47005;52.292;13.452;2022-07-29T12:28:01;4.78;;;2.90;;
21611;SDS011;47005;52.292;13.452;2022-07-29T12:30:35;5.75;;;2.85;;
21611;SDS011;47005;52.292;13.452;2022-07-29T12:33:28;13.55;;;3.15;;
21611;SDS011;47005;52.292;13.452;2022-07-29T12:35:55;5.80;;;2.90;;
21611;SDS011;47005;52.292;13.452;2022-07-29T12:38:23;8.45;;;2.30;;
21611;SDS011;47005;52.292;13.452;2022-07-29T12:40:49;3.67;;;2.40;;
21611;SDS011;47005;52.292;13.452;2022-07-29T12:43:23;5.90;;;3.20;;
21611;SDS011;47005;52.292;13.452;2022-07-29T12:45:50;5.95;;;2.78;;
21611;SDS011;47005;52.292;13.452;2022-07-29T12:50:59;3.70;;;2.33;;
21611;SDS011;47005;52.292;13.452;2022-07-29T12:53:26;4.55;;;2.72;;
21611;SDS011;47005;52.292;13.452;2022-07-29T12:55:55;4.32;;;2.40;;
21611;SDS011;47005;52.292;13.452;2022-07-29T12:58:25;4.18;;;2.55;;
21611;SDS011;47005;52.292;13.452;2022-07-29T13:01:05;4.18;;;2.65;;
21611;SDS011;47005;52.292;13.452;2022-07-29T13:03:47;8.35;;;3.03;;
21611;SDS011;47005;52.292;13.452;2022-07-29T13:14:09;4.82;;;2.05;;
21611;SDS011;47005;52.292;13.452;2022-07-29T13:16:37;4.75;;;2.22;;
21611;SDS011;47005;52.292;13.452;2022-07-29T13:19:31;13.13;;;2.80;;
21611;SDS011;47005;52.292;13.452;2022-07-29T13:21:59;7.50;;;2.50;;
21611;SDS011;47005;52.292;13.452;2022-07-29T13:24:24;4.70;;;2.10;;
21611;SDS011;47005;52.292;13.452;2022-07-29T13:26:50;3.58;;;2.20;;
21611;SDS011;47005;52.292;13.452;2022-07-29T13:29:16;3.58;;;2.63;;
21611;SDS011;47005;52.292;13.452;2022-07-29T13:31:42;5.72;;;2.72;;
21611;SDS011;47005;52.292;13.452;2022-07-29T13:34:08;4.70;;;2.78;;
21611;SDS011;47005;52.292;13.452;2022-07-29T13:36:34;4.47;;;2.22;;
21611;SDS011;47005;52.292;13.452;2022-07-29T13:38:59;4.50;;;2.72;;
21611;SDS011;47005;52.292;13.452;2022-07-29T13:41:27;4.30;;;2.55;;
21611;SDS011;47005;52.292;13.452;2022-07-29T13:43:53;6.40;;;2.85;;
21611;SDS011;47005;52.292;13.452;2022-07-29T13:46:18;3.65;;;2.95;;
21611;SDS011;47005;52.292;13.452;2022-07-29T13:48:44;6.38;;;3.05;;
21611;SDS011;47005;52.292;13.452;2022-07-29T13:51:09;4.03;;;2.58;;
21611;SDS011;47005;52.292;13.452;2022-07-29T13:53:35;3.65;;;2.58;;
21611;SDS011;47005;52.292;13.452;2022-07-29T13:56:00;4.45;;;2.67;;
21611;SDS011;47005;52.292;13.452;2022-07-29T13:58:26;6.80;;;2.38;;
21611;SDS011;47005;52.292;13.452;2022-07-29T14:00:52;4.30;;;2.78;;
21611;SDS011;47005;52.292;13.452;2022-07-29T14:03:17;3.67;;;2.65;;
21611;SDS011;47005;52.292;13.452;2022-07-29T14:05:43;5.05;;;2.33;;
21611;SDS011;47005;52.292;13.452;2022-07-29T14:08:09;3.65;;;2.45;;
21611;SDS011;47005;52.292;13.452;2022-07-29T14:10:34;4.68;;;2.83;;
21611;SDS011;47005;52.292;13.452;2022-07-29T14:13:00;4.07;;;2.75;;
21611;SDS011;47005;52.292;13.452;2022-07-29T14:15:26;5.78;;;2.40;;
21611;SDS011;47005;52.292;13.452;2022-07-29T14:17:51;4.38;;;2.40;;
21611;SDS011;47005;52.292;13.452;2022-07-29T14:20:17;5.40;;;3.00;;
21611;SDS011;47005;52.292;13.452;2022-07-29T14:22:42;5.65;;;2.63;;
21611;SDS011;47005;52.292;13.452;2022-07-29T14:25:08;7.82;;;2.40;;
21611;SDS011;47005;52.292;13.452;2022-07-29T14:27:34;4.55;;;2.45;;
21611;SDS011;47005;52.292;13.452;2022-07-29T14:29:59;3.97;;;2.53;;
21611;SDS011;47005;52.292;13.452;2022-07-29T14:32:25;8.60;;;2.78;;
21611;SDS011;47005;52.292;13.452;2022-07-29T14:34:50;5.28;;;2.60;;
21611;SDS011;47005;52.292;13.452;2022-07-29T14:37:16;7.45;;;2.75;;
21611;SDS011;47005;52.292;13.452;2022-07-29T14:39:42;6.32;;;3.08;;
21611;SDS011;47005;52.292;13.452;2022-07-29T14:42:07;6.57;;;2.30;;
21611;SDS011;47005;52.292;13.452;2022-07-29T14:44:33;7.57;;;2.65;;
21611;SDS011;47005;52.292;13.452;2022-07-29T14:46:59;4.30;;;2.60;;
21611;SDS011;47005;52.292;13.452;2022-07-29T14:49:25;7.85;;;2.83;;
21611;SDS011;47005;52.292;13.452;2022-07-29T14:51:54;4.07;;;2.50;;
21611;SDS011;47005;52.292;13.452;2022-07-29T14:54:19;5.72;;;3.13;;
21611;SDS011;47005;52.292;13.452;2022-07-29T14:56:45;4.60;;;2.50;;
21611;SDS011;47005;52.292;13.452;2022-07-29T14:59:11;11.23;;;2.40;;
21611;SDS011;47005;52.292;13.452;2022-07-29T15:01:37;4.07;;;2.28;;
21611;SDS011;47005;52.292;13.452;2022-07-29T15:04:02;8.93;;;2.42;;
21611;SDS011;47005;52.292;13.452;2022-07-29T15:06:28;3.17;;;2.28;;
21611;SDS011;47005;52.292;13.452;2022-07-29T15:08:54;9.65;;;3.17;;
21611;SDS011;47005;52.292;13.452;2022-07-29T15:11:19;3.30;;;2.10;;
21611;SDS011;47005;52.292;13.452;2022-07-29T15:13:45;5.53;;;3.22;;
21611;SDS011;47005;52.292;13.452;2022-07-29T15:16:11;5.03;;;3.08;;
21611;SDS011;47005;52.292;13.452;2022-07-29T15:18:36;3.97;;;2.30;;
21611;SDS011;47005;52.292;13.452;2022-07-29T15:21:03;5.03;;;2.50;;
21611;SDS011;47005;52.292;13.452;2022-07-29T15:23:31;4.72;;;2.33;;
21611;SDS011;47005;52.292;13.452;2022-07-29T15:25:57;6.88;;;3.22;;
21611;SDS011;47005;52.292;13.452;2022-07-29T15:28:22;3.85;;;2.65;;
21611;SDS011;47005;52.292;13.452;2022-07-29T15:30:48;6.15;;;2.53;;
21611;SDS011;47005;52.292;13.452;2022-07-29T15:33:13;4.72;;;2.75;;
21611;SDS011;47005;52.292;13.452;2022-07-29T15:35:39;6.07;;;2.47;;
21611;SDS011;47005;52.292;13.452;2022-07-29T15:38:04;4.85;;;2.60;;
21611;SDS011;47005;52.292;13.452;2022-07-29T15:40:30;6.18;;;2.83;;
21611;SDS011;47005;52.292;13.452;2022-07-29T15:42:56;5.55;;;2.70;;
21611;SDS011;47005;52.292;13.452;2022-07-29T15:45:25;3.95;;;2.60;;
21611;SDS011;47005;52.292;13.452;2022-07-29T15:47:51;5.20;;;2.67;;